Time;durP1;ratioP1;P1;durP2;ratioP2;P2;SDS_P1;SDS_P2;PMS_P1;PMS_P2;Temp;Humidity;BMP_temperature;BMP_pressure;BME280_temperature;BME280_humidity;BME280_pressure;Samples;Min_cycle;Max_cycle;Signal;HPM_P1;HPM_P2
2022/09/28 00:02:06;;;;;;;17.33;8.85;;;6.60;99.90;;;;;;5106308;28;20039;-82
2022/09/28 00:04:32;;;;;;;24.27;10.05;;;6.60;99.90;;;;;;5102624;28;20457;-82
2022/09/28 00:06:58;;;;;;;18.98;10.23;;;6.50;99.90;;;;;;5073361;28;20028;-82
2022/09/28 00:09:24;;;;;;;20.20;10.38;;;6.50;99.90;;;;;;5087062;28;20055;-82
2022/09/28 00:11:52;;;;;;;25.08;11.43;;;6.40;99.90;;;;;;5099759;28;20092;-83
2022/09/28 00:14:19;;;;;;;25.67;11.68;;;6.30;99.90;;;;;;5082561;27;20066;-84
2022/09/28 00:16:44;;;;;;;24.83;11.77;;;6.50;99.90;;;;;;5123258;27;20039;-82
2022/09/28 00:19:11;;;;;;;23.88;10.85;;;6.20;99.90;;;;;;5111405;27;20139;-83
2022/09/28 00:21:39;;;;;;;20.33;11.10;;;6.20;99.90;;;;;;5118948;27;20340;-82
2022/09/28 00:24:14;;;;;;;22.13;10.50;;;6.20;99.90;;;;;;5098935;27;20039;-82
2022/09/28 00:26:47;;;;;;;27.48;11.07;;;6.50;99.90;;;;;;5125092;27;20043;-82
2022/09/28 00:29:30;;;;;;;25.50;10.98;;;6.30;99.90;;;;;;5108844;27;20043;-82
2022/09/28 00:32:09;;;;;;;30.17;12.93;;;6.20;99.90;;;;;;5115230;27;20438;-82
2022/09/28 00:34:37;;;;;;;29.15;12.40;;;6.50;99.90;;;;;;5119072;27;20094;-82
2022/09/28 00:37:08;;;;;;;34.55;13.80;;;6.20;99.90;;;;;;5119018;27;20043;-83
2022/09/28 00:39:34;;;;;;;27.00;12.35;;;6.20;99.90;;;;;;5119296;27;20043;-83
2022/09/28 00:42:02;;;;;;;30.88;13.43;;;6.20;99.90;;;;;;5119171;27;20123;-83
2022/09/28 00:44:32;;;;;;;29.75;13.52;;;6.20;99.90;;;;;;5120263;27;20078;-83
2022/09/28 00:47:21;;;;;;;23.80;11.70;;;6.20;99.90;;;;;;5095970;27;20125;-82
2022/09/28 00:49:47;;;;;;;27.00;12.00;;;6.20;99.90;;;;;;5106378;27;20085;-83
2022/09/28 00:52:42;;;;;;;28.42;12.50;;;6.20;99.90;;;;;;5118611;28;20074;-82
2022/09/28 00:55:15;;;;;;;33.03;12.90;;;6.10;99.90;;;;;;5109129;28;20609;-82
2022/09/28 00:57:48;;;;;;;30.02;12.95;;;6.00;99.90;;;;;;5116619;28;20055;-82
2022/09/28 01:00:14;;;;;;;38.80;14.85;;;6.00;99.90;;;;;;5120599;28;20051;-83
2022/09/28 01:02:41;;;;;;;25.30;11.80;;;6.00;99.90;;;;;;5115648;28;20383;-82
2022/09/28 01:05:09;;;;;;;35.35;12.75;;;6.00;99.90;;;;;;5104022;28;20047;-82
2022/09/28 01:07:36;;;;;;;35.20;12.80;;;6.00;99.90;;;;;;5126881;28;20058;-82
2022/09/28 01:10:03;;;;;;;47.25;15.25;;;6.10;99.90;;;;;;5093046;28;20047;-82
2022/09/28 01:12:28;;;;;;;21.75;10.95;;;5.90;99.90;;;;;;5096129;27;20632;-82
2022/09/28 01:14:56;;;;;;;39.42;15.00;;;5.60;99.90;;;;;;5097766;27;20055;-82
2022/09/28 01:17:35;;;;;;;40.75;14.95;;;5.80;99.90;;;;;;5118020;27;20079;-81
2022/09/28 01:20:26;;;;;;;32.22;12.95;;;5.90;99.90;;;;;;5119771;28;20466;-82
2022/09/28 01:23:32;;;;;;;24.55;11.10;;;5.70;99.90;;;;;;5107274;27;20050;-82
2022/09/28 01:26:16;;;;;;;24.80;10.95;;;5.60;99.90;;;;;;5119587;27;20121;-82
2022/09/28 01:28:44;;;;;;;24.38;11.32;;;5.50;99.90;;;;;;5125800;27;20043;-81
2022/09/28 01:31:14;;;;;;;29.92;12.73;;;5.50;99.90;;;;;;5101891;27;20043;-82
2022/09/28 01:33:59;;;;;;;37.97;14.13;;;5.50;99.90;;;;;;5121638;27;20173;-82
2022/09/28 01:36:54;;;;;;;33.35;13.55;;;5.50;99.90;;;;;;5123089;27;20047;-82
2022/09/28 01:39:31;;;;;;;33.45;14.23;;;5.70;99.90;;;;;;5119672;27;20183;-82
2022/09/28 01:42:02;;;;;;;31.42;13.52;;;5.60;99.90;;;;;;5112435;27;20099;-82
2022/09/28 01:44:31;;;;;;;35.15;13.82;;;5.60;99.90;;;;;;5121642;27;20496;-80
2022/09/28 01:47:03;;;;;;;29.88;13.65;;;5.60;99.90;;;;;;5120925;27;20191;-80
2022/09/28 01:49:35;;;;;;;25.25;13.43;;;5.70;99.90;;;;;;5128044;27;20091;-81
2022/09/28 01:52:14;;;;;;;33.75;15.07;;;5.60;99.90;;;;;;5126977;27;20075;-81
2022/09/28 01:54:50;;;;;;;34.67;13.90;;;5.70;99.90;;;;;;5124935;27;20035;-80
2022/09/28 01:57:38;;;;;;;32.70;13.63;;;5.90;99.90;;;;;;5129825;27;20043;-81
2022/09/28 02:00:07;;;;;;;26.88;12.85;;;5.80;99.90;;;;;;5125633;27;20460;-80
2022/09/28 02:02:47;;;;;;;32.72;14.63;;;5.90;99.90;;;;;;5111055;27;20043;-81
2022/09/28 02:05:36;;;;;;;27.85;14.02;;;6.00;99.90;;;;;;5115068;27;20050;-80
2022/09/28 02:08:08;;;;;;;38.03;15.95;;;6.00;99.90;;;;;;5128996;27;20066;-81
2022/09/28 02:10:49;;;;;;;27.92;13.70;;;6.10;99.90;;;;;;5104545;27;20050;-81
2022/09/28 02:13:22;;;;;;;33.00;13.73;;;6.20;99.90;;;;;;5124428;27;20050;-80
2022/09/28 02:15:58;;;;;;;31.45;14.00;;;6.30;99.90;;;;;;5133187;27;20116;-81
2022/09/28 02:18:24;;;;;;;43.10;16.05;;;6.40;99.90;;;;;;5130587;27;20506;-81
2022/09/28 02:20:58;;;;;;;30.70;13.65;;;6.40;99.90;;;;;;5099570;27;20043;-81
2022/09/28 02:23:25;;;;;;;32.08;15.23;;;6.50;99.90;;;;;;5128497;27;20123;-81
2022/09/28 02:26:04;;;;;;;35.65;15.05;;;6.70;99.90;;;;;;5114535;27;20070;-80
2022/09/28 02:28:29;;;;;;;37.22;14.55;;;6.60;99.90;;;;;;5127620;27;20091;-81
2022/09/28 02:30:58;;;;;;;34.40;13.65;;;6.70;99.90;;;;;;5126946;27;20042;-80
2022/09/28 02:33:33;;;;;;;180.63;33.72;;;6.80;99.90;;;;;;5102642;27;20038;-80
2022/09/28 02:36:00;;;;;;;189.68;37.63;;;6.80;99.90;;;;;;5113963;27;20098;-80
2022/09/28 02:38:26;;;;;;;271.90;42.10;;;6.90;99.90;;;;;;5129554;27;20133;-81
2022/09/28 02:41:22;;;;;;;294.65;44.97;;;7.00;99.90;;;;;;5073833;27;20184;-81
2022/09/28 02:44:10;;;;;;;316.05;44.05;;;7.10;99.90;;;;;;5090191;27;20062;-82
2022/09/28 02:46:45;;;;;;;355.77;46.03;;;7.20;99.90;;;;;;5130757;27;20039;-82
2022/09/28 02:49:24;;;;;;;378.98;45.80;;;7.10;99.90;;;;;;5098970;27;20058;-82
2022/09/28 02:51:53;;;;;;;389.33;48.85;;;7.20;99.90;;;;;;5133919;27;20057;-81
2022/09/28 02:54:58;;;;;;;278.20;42.67;;;7.20;99.90;;;;;;5119429;27;20104;-82
2022/09/28 02:57:57;;;;;;;350.33;45.47;;;7.20;99.90;;;;;;5125714;27;20410;-82
2022/09/28 03:00:23;;;;;;;458.67;51.42;;;7.20;99.90;;;;;;5133047;27;20042;-81
2022/09/28 03:03:20;;;;;;;555.67;53.05;;;7.20;99.90;;;;;;5119344;27;20061;-81
2022/09/28 03:05:59;;;;;;;553.95;51.50;;;7.20;99.90;;;;;;5116213;27;20058;-80
2022/09/28 03:08:35;;;;;;;510.67;49.85;;;7.20;99.90;;;;;;5114684;27;20055;-81
2022/09/28 03:11:02;;;;;;;306.70;42.20;;;7.10;99.90;;;;;;5124763;27;20157;-81
2022/09/28 03:13:30;;;;;;;444.02;46.13;;;7.20;99.90;;;;;;5126641;27;20062;-81
2022/09/28 03:16:26;;;;;;;423.42;45.55;;;7.20;99.90;;;;;;5111611;27;20369;-81
2022/09/28 03:18:51;;;;;;;533.00;52.72;;;7.20;99.90;;;;;;5102572;27;20065;-81
2022/09/28 03:21:17;;;;;;;285.98;42.15;;;7.20;99.90;;;;;;5097964;27;20051;-80
2022/09/28 03:23:43;;;;;;;588.38;53.92;;;7.20;99.90;;;;;;5132838;27;20049;-82
2022/09/28 03:26:12;;;;;;;667.90;57.63;;;7.20;99.90;;;;;;5106655;27;20487;-81
2022/09/28 03:28:39;;;;;;;411.13;44.95;;;7.20;99.90;;;;;;5127797;27;20060;-81
2022/09/28 03:31:05;;;;;;;702.97;55.10;;;7.20;99.90;;;;;;5115097;27;20098;-81
2022/09/28 03:33:30;;;;;;;742.13;57.28;;;7.20;99.90;;;;;;5102495;27;20039;-81
2022/09/28 03:35:56;;;;;;;564.88;47.40;;;7.20;99.90;;;;;;5119758;27;20434;-81
2022/09/28 03:38:22;;;;;;;506.35;45.42;;;7.10;99.90;;;;;;5129234;27;20031;-81
2022/09/28 03:40:56;;;;;;;621.33;52.60;;;7.10;99.90;;;;;;5132602;27;20047;-81
2022/09/28 03:43:22;;;;;;;579.85;47.58;;;7.10;99.90;;;;;;5118780;27;20043;-81
2022/09/28 03:45:57;;;;;;;557.22;46.80;;;7.30;99.90;;;;;;5110297;27;20392;-81
2022/09/28 03:48:31;;;;;;;590.28;48.92;;;7.00;99.90;;;;;;5109015;27;20047;-81
2022/09/28 03:50:59;;;;;;;562.80;48.78;;;7.00;99.90;;;;;;5114729;27;20047;-81
2022/09/28 03:53:25;;;;;;;458.38;41.28;;;7.00;99.90;;;;;;5115365;27;20035;-81
2022/09/28 03:55:52;;;;;;;578.35;50.60;;;7.00;99.90;;;;;;5114092;27;20181;-81
2022/09/28 03:58:19;;;;;;;659.28;54.47;;;6.90;99.90;;;;;;5114566;27;20054;-80
2022/09/28 04:00:46;;;;;;;605.10;50.10;;;6.90;99.90;;;;;;5124889;27;20120;-80
2022/09/28 04:03:11;;;;;;;521.67;44.67;;;7.10;99.90;;;;;;5126426;27;20377;-81
2022/09/28 04:05:37;;;;;;;653.20;54.17;;;6.90;99.90;;;;;;5131602;27;20057;-81
2022/09/28 04:08:03;;;;;;;520.00;44.17;;;6.90;99.90;;;;;;5076670;27;20483;-81
2022/09/28 04:10:29;;;;;;;540.50;47.35;;;6.90;99.90;;;;;;5126464;27;20035;-80
2022/09/28 04:12:56;;;;;;;461.45;43.78;;;6.90;99.90;;;;;;5120687;27;20115;-81
2022/09/28 04:15:25;;;;;;;406.95;40.03;;;6.80;99.90;;;;;;5133039;27;20475;-80
2022/09/28 04:17:53;;;;;;;475.17;44.58;;;6.80;99.90;;;;;;5132877;27;20096;-82
2022/09/28 04:20:19;;;;;;;589.63;48.78;;;6.80;99.90;;;;;;5120482;27;20046;-81
2022/09/28 04:22:45;;;;;;;490.73;45.28;;;6.70;99.90;;;;;;5102284;27;20373;-81
2022/09/28 04:25:10;;;;;;;544.40;47.45;;;6.70;99.90;;;;;;5105569;27;20421;-80
2022/09/28 04:30:23;;;;;;;460.42;42.05;;;6.70;99.90;;;;;;5116767;27;20149;-81
2022/09/28 04:32:49;;;;;;;521.72;46.55;;;6.70;99.90;;;;;;5093329;27;20797;-81
2022/09/28 04:35:14;;;;;;;529.38;46.03;;;6.70;99.90;;;;;;5123919;27;20142;-80
2022/09/28 04:37:40;;;;;;;448.02;43.70;;;6.70;99.90;;;;;;5104323;28;20050;-81
2022/09/28 04:40:07;;;;;;;344.63;37.97;;;6.70;99.90;;;;;;5110658;27;20042;-80
2022/09/28 04:42:33;;;;;;;278.75;34.88;;;6.70;99.90;;;;;;5093625;27;20043;-81
2022/09/28 04:44:59;;;;;;;265.20;32.42;;;6.70;99.90;;;;;;5126021;27;20046;-81
2022/09/28 04:47:26;;;;;;;303.42;35.58;;;6.70;99.90;;;;;;5101724;27;20053;-81
2022/09/28 04:49:51;;;;;;;358.33;36.67;;;6.70;99.90;;;;;;5111585;27;20057;-81
2022/09/28 04:52:17;;;;;;;367.52;40.03;;;6.70;99.90;;;;;;5127645;27;20058;-80
2022/09/28 04:54:43;;;;;;;365.83;38.92;;;6.70;99.90;;;;;;5105778;27;20049;-80
2022/09/28 04:57:09;;;;;;;405.23;39.83;;;6.70;99.90;;;;;;5124920;27;20127;-81
2022/09/28 04:59:36;;;;;;;356.17;35.90;;;6.60;99.90;;;;;;5129774;27;20095;-81
2022/09/28 05:02:02;;;;;;;414.10;39.08;;;6.60;99.90;;;;;;5101614;27;20396;-81
2022/09/28 05:04:29;;;;;;;313.48;34.90;;;6.50;99.90;;;;;;5096396;27;20047;-80
2022/09/28 05:06:55;;;;;;;326.98;36.22;;;6.70;99.90;;;;;;5099703;27;20035;-78
2022/09/28 05:09:21;;;;;;;198.57;30.50;;;6.50;99.90;;;;;;5083679;27;20039;-79
2022/09/28 05:11:51;;;;;;;293.42;35.22;;;6.50;99.90;;;;;;5094182;28;20051;-78
2022/09/28 05:14:20;;;;;;;286.48;33.15;;;6.60;99.90;;;;;;5124056;27;20058;-80
2022/09/28 05:16:46;;;;;;;294.65;34.13;;;6.60;99.90;;;;;;5106673;27;20051;-78
2022/09/28 05:19:13;;;;;;;346.55;37.35;;;6.60;99.90;;;;;;5129578;27;20043;-78
2022/09/28 05:21:45;;;;;;;315.17;35.03;;;6.60;99.90;;;;;;5100998;27;20134;-78
2022/09/28 05:24:11;;;;;;;279.67;31.77;;;6.60;99.90;;;;;;5113064;27;20053;-81
2022/09/28 05:26:37;;;;;;;320.73;32.70;;;6.60;99.90;;;;;;5100148;27;20043;-81
2022/09/28 05:29:03;;;;;;;314.33;32.85;;;6.50;99.90;;;;;;5109705;27;20055;-82
2022/09/28 05:31:29;;;;;;;261.95;30.27;;;6.60;99.90;;;;;;5108912;27;20391;-81
2022/09/28 05:33:54;;;;;;;406.90;36.40;;;6.70;99.90;;;;;;5114722;27;20499;-81
2022/09/28 05:36:21;;;;;;;343.85;33.35;;;6.50;99.90;;;;;;5114042;27;20043;-82
2022/09/28 05:38:46;;;;;;;229.30;29.33;;;6.40;99.90;;;;;;5104863;27;20144;-82
2022/09/28 05:41:12;;;;;;;300.15;31.65;;;6.30;99.90;;;;;;5103096;27;20076;-81
2022/09/28 05:43:38;;;;;;;337.25;31.23;;;6.40;99.90;;;;;;5118646;27;20506;-81
2022/09/28 05:46:04;;;;;;;392.88;34.85;;;6.30;99.90;;;;;;5103642;27;20055;-82
2022/09/28 05:48:33;;;;;;;411.80;34.67;;;6.20;99.90;;;;;;5118271;27;20125;-82
2022/09/28 05:50:58;;;;;;;266.67;28.98;;;6.20;99.90;;;;;;5106095;27;20047;-80
2022/09/28 05:53:24;;;;;;;335.33;34.60;;;6.20;99.90;;;;;;5110126;27;20813;-81
2022/09/28 05:55:50;;;;;;;299.83;32.28;;;6.20;99.90;;;;;;5113795;27;20133;-82
2022/09/28 05:58:16;;;;;;;289.48;30.90;;;6.40;99.90;;;;;;5100490;27;20081;-80
2022/09/28 06:00:42;;;;;;;279.40;32.05;;;6.10;99.90;;;;;;5099837;27;20035;-81
2022/09/28 06:03:11;;;;;;;289.05;30.55;;;6.30;99.90;;;;;;5111022;27;20046;-82
2022/09/28 06:05:38;;;;;;;252.73;29.45;;;6.20;99.90;;;;;;5126979;27;20082;-80
2022/09/28 06:08:05;;;;;;;238.93;28.83;;;6.20;99.90;;;;;;5121847;27;20047;-81
2022/09/28 06:10:32;;;;;;;246.90;28.38;;;6.20;99.90;;;;;;5122063;27;20050;-81
2022/09/28 06:12:59;;;;;;;269.95;29.65;;;6.20;99.90;;;;;;5123408;27;20035;-82
2022/09/28 06:15:27;;;;;;;149.15;23.92;;;6.20;99.90;;;;;;5118774;27;20058;-82
2022/09/28 06:18:00;;;;;;;136.93;24.25;;;6.20;99.90;;;;;;5126703;27;20068;-82
2022/09/28 06:20:28;;;;;;;132.90;24.40;;;6.30;99.90;;;;;;5124974;27;20279;-82
2022/09/28 06:22:54;;;;;;;176.27;27.95;;;6.40;99.90;;;;;;5123998;27;20069;-83
2022/09/28 06:25:21;;;;;;;259.33;31.33;;;6.60;99.90;;;;;;5101934;27;20043;-83
2022/09/28 06:28:13;;;;;;;143.25;25.10;;;6.70;99.90;;;;;;5126022;27;20046;-83
2022/09/28 06:30:40;;;;;;;166.55;25.63;;;6.90;99.90;;;;;;5109652;27;20042;-83
2022/09/28 06:33:11;;;;;;;174.27;26.95;;;6.90;99.90;;;;;;5106006;27;20060;-82
2022/09/28 06:35:38;;;;;;;148.65;26.98;;;7.00;99.90;;;;;;5122836;27;20042;-83
2022/09/28 06:38:04;;;;;;;243.23;31.05;;;6.90;99.90;;;;;;5103452;27;20050;-83
2022/09/28 06:40:30;;;;;;;181.95;27.95;;;7.10;99.90;;;;;;5106084;27;20065;-83
2022/09/28 06:43:01;;;;;;;145.63;26.67;;;7.20;99.90;;;;;;5121110;27;20069;-83
2022/09/28 06:45:30;;;;;;;126.63;26.27;;;7.10;99.90;;;;;;5125360;27;20127;-83
2022/09/28 06:47:58;;;;;;;222.65;29.80;;;7.10;99.90;;;;;;5129947;27;20092;-83
2022/09/28 06:50:31;;;;;;;186.20;27.95;;;7.40;99.90;;;;;;5106820;27;20043;-82
2022/09/28 06:52:57;;;;;;;194.77;29.10;;;7.10;99.90;;;;;;5124518;27;20543;-83
2022/09/28 06:55:23;;;;;;;119.05;23.90;;;7.30;99.90;;;;;;5088235;27;20050;-83
2022/09/28 06:58:02;;;;;;;221.38;30.17;;;7.30;99.90;;;;;;5103150;27;20482;-83
2022/09/28 07:00:32;;;;;;;210.63;29.08;;;7.20;99.90;;;;;;5105360;27;20047;-83
2022/09/28 07:03:02;;;;;;;220.73;29.45;;;7.20;99.90;;;;;;5120812;27;20047;-83
2022/09/28 07:05:28;;;;;;;203.60;30.40;;;7.20;99.90;;;;;;5105642;27;20043;-82
2022/09/28 07:07:55;;;;;;;302.90;34.25;;;7.20;99.90;;;;;;5105959;27;20046;-82
2022/09/28 07:10:23;;;;;;;266.00;30.95;;;7.20;99.90;;;;;;5099206;27;20054;-82
2022/09/28 07:12:50;;;;;;;184.32;27.90;;;7.20;99.90;;;;;;5103546;27;20038;-83
2022/09/28 07:15:16;;;;;;;213.77;28.70;;;7.30;99.90;;;;;;5099536;27;20051;-83
2022/09/28 07:17:42;;;;;;;397.13;35.30;;;7.30;99.90;;;;;;5090636;27;20057;-83
2022/09/28 07:20:08;;;;;;;374.27;35.25;;;7.40;99.90;;;;;;5089577;27;20472;-83
2022/09/28 07:22:33;;;;;;;339.50;32.53;;;7.40;99.90;;;;;;5098006;27;20047;-83
2022/09/28 07:24:59;;;;;;;518.88;39.78;;;7.50;99.90;;;;;;5124013;27;20054;-84
2022/09/28 07:27:25;;;;;;;260.58;30.38;;;7.50;99.90;;;;;;5130706;27;20095;-82
2022/09/28 07:29:54;;;;;;;383.02;33.38;;;7.70;99.90;;;;;;5119015;27;20134;-82
2022/09/28 07:32:20;;;;;;;384.67;33.15;;;7.80;99.90;;;;;;5120918;27;20046;-82
2022/09/28 07:34:47;;;;;;;341.30;32.15;;;7.80;99.90;;;;;;5121527;27;20043;-83
2022/09/28 07:37:17;;;;;;;224.95;27.98;;;7.80;99.90;;;;;;5108073;27;20387;-84
2022/09/28 07:42:29;;;;;;;359.58;29.92;;;7.70;99.90;;;;;;5122029;27;20073;-82
2022/09/28 07:44:58;;;;;;;255.57;27.77;;;7.60;99.90;;;;;;5102163;27;20566;-83
2022/09/28 07:47:27;;;;;;;279.08;28.60;;;7.50;99.90;;;;;;5123083;27;20034;-84
2022/09/28 07:49:56;;;;;;;224.73;26.13;;;7.70;99.90;;;;;;5126194;27;20051;-83
2022/09/28 07:52:25;;;;;;;190.77;24.45;;;7.60;99.90;;;;;;5124534;27;20068;-82
2022/09/28 07:54:54;;;;;;;265.92;27.45;;;7.60;99.90;;;;;;5107273;27;20043;-82
2022/09/28 07:57:21;;;;;;;259.23;26.17;;;7.70;99.90;;;;;;5131650;27;20142;-84
2022/09/28 07:59:48;;;;;;;332.17;30.00;;;7.90;99.90;;;;;;5110981;27;20051;-83
2022/09/28 08:02:18;;;;;;;340.80;32.10;;;8.10;99.90;;;;;;5124434;27;20882;-84
2022/09/28 08:04:45;;;;;;;334.48;30.30;;;8.30;99.90;;;;;;5100840;27;20108;-82
2022/09/28 08:07:15;;;;;;;343.30;32.15;;;8.50;99.90;;;;;;5089366;27;20145;-83
2022/09/28 08:09:41;;;;;;;232.55;26.48;;;8.70;99.90;;;;;;5118594;27;20038;-82
2022/09/28 08:12:07;;;;;;;280.70;28.83;;;8.90;99.90;;;;;;5106263;27;20118;-82
2022/09/28 08:14:33;;;;;;;467.92;36.83;;;8.90;99.90;;;;;;5110063;27;20205;-82
2022/09/28 08:17:03;;;;;;;80.97;20.60;;;8.80;99.90;;;;;;5120969;27;20104;-83
2022/09/28 08:21:43;;;;;;;227.02;26.90;;;9.00;99.90;;;;;;5120673;27;20035;-83
2022/09/28 08:22:20;;;;;;;145.57;24.33;;;9.10;99.90;;;;;;5121475;27;20125;-83
2022/09/28 08:24:46;;;;;;;118.25;21.90;;;9.20;99.90;;;;;;5115881;27;20039;-83
2022/09/28 08:27:13;;;;;;;152.23;21.77;;;9.10;99.90;;;;;;5120425;27;20392;-83
2022/09/28 08:29:39;;;;;;;161.50;20.67;;;9.00;99.90;;;;;;5103185;27;20047;-82
2022/09/28 08:32:08;;;;;;;167.18;23.30;;;9.00;99.90;;;;;;5102901;27;20051;-82
2022/09/28 08:34:35;;;;;;;80.15;17.63;;;9.10;99.90;;;;;;5104622;27;20487;-84
2022/09/28 08:37:01;;;;;;;60.50;17.02;;;9.00;99.90;;;;;;5103335;27;20043;-83
2022/09/28 08:39:27;;;;;;;50.13;17.45;;;9.40;99.90;;;;;;5117418;27;20437;-82
2022/09/28 08:42:02;;;;;;;48.10;17.80;;;9.60;99.90;;;;;;5094119;27;20050;-82
2022/09/28 08:44:38;;;;;;;59.60;18.20;;;9.80;99.90;;;;;;5117494;27;20047;-83
2022/09/28 08:50:39;;;;;;;33.67;14.18;;;9.80;99.90;;;;;;5088044;27;20062;-83
2022/09/28 08:53:21;;;;;;;43.88;16.83;;;10.10;99.90;;;;;;5120798;27;20093;-83
2022/09/28 08:55:48;;;;;;;34.42;15.43;;;10.50;99.90;;;;;;5116854;27;20050;-83
2022/09/28 08:58:21;;;;;;;34.20;16.13;;;11.00;99.90;;;;;;5120895;27;20495;-83
2022/09/28 09:00:51;;;;;;;25.65;13.15;;;11.30;99.90;;;;;;5120247;27;20042;-83
2022/09/28 09:03:33;;;;;;;27.15;13.40;;;11.60;99.90;;;;;;5084156;27;20055;-82
2022/09/28 09:06:20;;;;;;;27.70;13.57;;;11.70;99.90;;;;;;5100784;27;20415;-82
2022/09/28 09:09:24;;;;;;;25.40;13.25;;;11.80;99.90;;;;;;5121629;27;20038;-82
2022/09/28 09:11:59;;;;;;;20.40;11.88;;;12.00;99.90;;;;;;5099659;27;20116;-83
2022/09/28 09:14:31;;;;;;;23.50;12.82;;;12.10;99.90;;;;;;5104443;27;20058;-83
2022/09/28 09:17:22;;;;;;;21.90;12.00;;;12.30;99.90;;;;;;5104864;27;20078;-83
2022/09/28 09:19:48;;;;;;;25.20;12.00;;;12.50;99.90;;;;;;5119044;27;20722;-82
2022/09/28 09:22:28;;;;;;;21.88;11.93;;;12.60;99.90;;;;;;5102846;27;20051;-83
2022/09/28 09:25:17;;;;;;;18.65;11.52;;;12.70;99.90;;;;;;5120774;27;20055;-82
2022/09/28 09:27:58;;;;;;;20.73;12.73;;;12.60;99.90;;;;;;5102996;27;20099;-83
2022/09/28 09:30:25;;;;;;;18.50;11.00;;;12.90;99.90;;;;;;5103549;27;20426;-83
2022/09/28 09:33:14;;;;;;;13.68;9.95;;;13.10;99.90;;;;;;5084086;27;20031;-82
2022/09/28 09:36:22;;;;;;;13.07;9.68;;;13.00;99.90;;;;;;5116686;27;20039;-82
2022/09/28 09:39:20;;;;;;;14.95;10.55;;;12.70;99.90;;;;;;5085811;27;20556;-83
2022/09/28 09:42:01;;;;;;;13.52;9.57;;;12.00;99.90;;;;;;5115295;27;20598;-82
2022/09/28 09:44:49;;;;;;;14.95;9.90;;;11.80;99.90;;;;;;5103321;27;20082;-83
2022/09/28 09:47:24;;;;;;;16.00;10.82;;;11.60;99.90;;;;;;5101378;27;20043;-83
2022/09/28 09:50:28;;;;;;;16.03;9.93;;;11.60;99.90;;;;;;5117545;27;20047;-82
2022/09/28 09:53:04;;;;;;;11.90;9.10;;;11.60;99.90;;;;;;5114227;27;20150;-83
2022/09/28 09:55:39;;;;;;;14.60;9.48;;;11.70;99.90;;;;;;5124293;27;20170;-82
2022/09/28 09:58:31;;;;;;;14.43;9.68;;;11.70;99.90;;;;;;5115480;27;20042;-82
2022/09/28 10:01:12;;;;;;;13.27;9.30;;;11.70;99.90;;;;;;5128865;27;20055;-84
2022/09/28 10:03:42;;;;;;;13.82;9.80;;;11.80;99.90;;;;;;5115654;27;20704;-83
2022/09/28 10:06:14;;;;;;;13.85;9.57;;;12.00;99.90;;;;;;5123653;27;20035;-83
2022/09/28 10:08:47;;;;;;;22.08;10.25;;;12.10;99.90;;;;;;5103711;27;20055;-83
2022/09/28 10:11:15;;;;;;;13.90;9.55;;;12.30;99.90;;;;;;5106234;27;20073;-83
2022/09/28 10:13:41;;;;;;;12.48;9.32;;;12.40;99.90;;;;;;5114043;27;20149;-84
2022/09/28 10:16:07;;;;;;;14.77;9.82;;;12.50;99.90;;;;;;5112583;27;20138;-82
2022/09/28 10:18:34;;;;;;;11.80;8.73;;;12.70;99.90;;;;;;5117955;27;20142;-83
2022/09/28 10:21:00;;;;;;;12.25;8.93;;;12.90;99.90;;;;;;5130598;27;20129;-82
2022/09/28 10:23:32;;;;;;;10.50;8.30;;;13.00;99.90;;;;;;5117858;27;20559;-83
2022/09/28 10:26:04;;;;;;;10.77;7.15;;;13.10;99.90;;;;;;5130843;27;20042;-83
2022/09/28 10:28:38;;;;;;;11.95;8.43;;;13.30;99.90;;;;;;5117590;27;21228;-83
2022/09/28 10:31:42;;;;;;;12.85;8.13;;;13.50;99.90;;;;;;5118946;27;20141;-82
2022/09/28 10:34:13;;;;;;;8.90;7.50;;;13.80;99.90;;;;;;5121479;27;20174;-83
2022/09/28 10:37:02;;;;;;;10.38;7.88;;;14.10;99.90;;;;;;5121899;27;20099;-83
2022/09/28 10:39:31;;;;;;;11.02;7.57;;;14.40;99.90;;;;;;5104458;27;20648;-83
2022/09/28 10:42:01;;;;;;;7.28;6.22;;;14.70;99.90;;;;;;5099406;27;20042;-83
2022/09/28 10:44:27;;;;;;;8.10;6.15;;;14.90;99.90;;;;;;5102197;27;20086;-83
2022/09/28 10:47:03;;;;;;;6.35;4.90;;;14.70;99.90;;;;;;5097659;27;20099;-83
2022/09/28 10:49:42;;;;;;;8.32;4.25;;;14.30;99.90;;;;;;5107225;27;20081;-82
2022/09/28 10:52:30;;;;;;;6.88;4.03;;;13.80;99.90;;;;;;5108396;27;20054;-82
2022/09/28 10:54:56;;;;;;;4.50;3.42;;;13.50;99.90;;;;;;5120404;27;20046;-84
2022/09/28 10:57:36;;;;;;;5.07;2.70;;;13.20;99.90;;;;;;5103125;27;20047;-84
2022/09/28 11:00:06;;;;;;;5.22;2.10;;;12.90;99.90;;;;;;5115925;27;20736;-83
2022/09/28 11:02:35;;;;;;;2.42;1.85;;;12.80;99.90;;;;;;5101317;27;20149;-81
2022/09/28 11:05:03;;;;;;;4.35;2.08;;;12.80;99.90;;;;;;5119836;27;20087;-82
2022/09/28 11:07:31;;;;;;;4.13;1.90;;;13.00;99.90;;;;;;5119260;27;20136;-83
2022/09/28 11:09:58;;;;;;;1.63;1.38;;;13.60;99.90;;;;;;5124119;27;20124;-82
2022/09/28 11:12:28;;;;;;;1.80;0.82;;;15.10;99.90;;;;;;5097762;27;20043;-83
2022/09/28 11:15:02;;;;;;;2.38;1.10;;;16.80;99.90;;;;;;5114102;27;20055;-83
2022/09/28 11:17:31;;;;;;;2.88;1.50;;;17.10;99.90;;;;;;5118622;27;20404;-84
2022/09/28 11:20:00;;;;;;;2.53;1.45;;;16.60;99.90;;;;;;5119148;27;20392;-83
2022/09/28 11:22:40;;;;;;;5.15;3.03;;;15.90;99.90;;;;;;5118136;27;20080;-82
2022/09/28 11:25:15;;;;;;;14.45;12.40;;;15.20;99.90;;;;;;5113062;27;20051;-82
2022/09/28 11:27:53;;;;;;;7.50;5.63;;;14.60;99.90;;;;;;5115220;27;20441;-83
2022/09/28 11:30:43;;;;;;;10.55;5.43;;;14.10;99.90;;;;;;5117001;27;20078;-83
2022/09/28 11:33:26;;;;;;;6.40;2.75;;;13.80;99.90;;;;;;5118513;27;20051;-82
2022/09/28 11:36:00;;;;;;;2.17;1.77;;;13.50;99.90;;;;;;5118095;27;20117;-82
2022/09/28 11:38:54;;;;;;;3.15;1.30;;;13.40;99.90;;;;;;5109413;27;20035;-82
2022/09/28 11:42:07;;;;;;;11.93;3.85;;;13.50;99.90;;;;;;5105395;27;20133;-82
2022/09/28 11:44:38;;;;;;;4.40;2.28;;;14.10;99.90;;;;;;5079214;27;20059;-84
2022/09/28 11:47:10;;;;;;;3.40;1.55;;;15.20;99.90;;;;;;5133101;27;20479;-83
2022/09/28 11:50:14;;;;;;;2.53;1.45;;;16.70;99.90;;;;;;5132831;27;20125;-83
2022/09/28 11:52:51;;;;;;;3.53;1.20;;;18.70;99.90;;;;;;5132847;27;20057;-83
2022/09/28 11:55:21;;;;;;;1.88;1.15;;;20.30;99.90;;;;;;5108264;27;20039;-83
2022/09/28 11:57:55;;;;;;;3.50;1.10;;;20.70;99.90;;;;;;5128799;27;20073;-83
2022/09/28 12:00:22;;;;;;;3.70;1.90;;;21.00;99.90;;;;;;5109820;27;20065;-83
2022/09/28 12:02:59;;;;;;;4.85;1.67;;;21.20;99.90;;;;;;5106554;27;20073;-84
2022/09/28 12:05:32;;;;;;;12.13;6.45;;;20.80;99.90;;;;;;5106377;27;20514;-82
2022/09/28 12:08:12;;;;;;;3.67;2.28;;;20.70;99.90;;;;;;5101817;27;20499;-83
2022/09/28 12:10:50;;;;;;;1.55;0.90;;;21.60;99.90;;;;;;5133104;27;20107;-82
2022/09/28 12:13:22;;;;;;;1.67;0.60;;;21.00;99.90;;;;;;5115674;27;20050;-83
2022/09/28 12:15:59;;;;;;;7.28;2.83;;;20.00;99.90;;;;;;5119421;27;20102;-83
2022/09/28 12:18:44;;;;;;;1.77;1.00;;;19.20;99.90;;;;;;5133197;27;20078;-83
2022/09/28 12:21:35;;;;;;;7.50;4.70;;;18.30;99.90;;;;;;5112227;27;20054;-83
2022/09/28 12:24:29;;;;;;;4.05;2.20;;;17.30;99.90;;;;;;5102131;27;20087;-83
2022/09/28 12:27:04;;;;;;;16.45;8.10;;;17.10;99.90;;;;;;5119123;27;20062;-84
2022/09/28 12:29:50;;;;;;;2.90;1.10;;;17.30;99.90;;;;;;5104053;27;20069;-83
2022/09/28 12:32:48;;;;;;;3.47;1.52;;;18.10;99.90;;;;;;5112346;27;20507;-83
2022/09/28 12:35:33;;;;;;;1.13;0.80;;;19.70;99.90;;;;;;5111382;27;20043;-84
2022/09/28 12:38:33;;;;;;;2.15;0.93;;;21.50;99.90;;;;;;5119094;27;20129;-83
2022/09/28 12:41:15;;;;;;;4.50;0.93;;;22.90;99.90;;;;;;5108077;27;20049;-84
2022/09/28 12:43:56;;;;;;;1.50;0.60;;;24.10;99.90;;;;;;5122643;27;20052;-82
2022/09/28 12:46:53;;;;;;;2.83;0.70;;;23.10;99.90;;;;;;5120052;27;20107;-83
2022/09/28 12:49:28;;;;;;;1.70;0.40;;;22.60;99.90;;;;;;5118787;27;21332;-83
2022/09/28 12:52:00;;;;;;;1.48;0.50;;;21.20;99.90;;;;;;5119600;27;20578;-82
2022/09/28 12:54:50;;;;;;;3.40;0.60;;;19.90;99.90;;;;;;5117901;27;20468;-82
2022/09/28 12:57:34;;;;;;;2.85;0.65;;;19.10;99.90;;;;;;5100839;27;20042;-81
2022/09/28 13:00:09;;;;;;;2.67;0.90;;;18.10;99.90;;;;;;5123344;27;20078;-83
2022/09/28 13:03:01;;;;;;;2.35;0.90;;;17.40;99.90;;;;;;5102875;27;20047;-82
2022/09/28 13:06:00;;;;;;;1.65;0.80;;;16.70;99.90;;;;;;5100343;27;20050;-83
2022/09/28 13:08:46;;;;;;;1.55;0.50;;;16.20;99.90;;;;;;5115808;27;20829;-81
2022/09/28 13:11:15;;;;;;;1.45;0.47;;;15.50;99.90;;;;;;5108274;28;20054;-82
2022/09/28 13:13:40;;;;;;;0.80;0.68;;;15.10;99.90;;;;;;5117708;27;20046;-81